Time;durP1;ratioP1;P1;durP2;ratioP2;P2;SDS_P1;SDS_P2;PMS_P1;PMS_P2;Temp;Humidity;BMP_temperature;BMP_pressure;BME280_temperature;BME280_humidity;BME280_pressure;Samples;Min_cycle;Max_cycle;Signal;HPM_P1;HPM_P2
2023/10/18 00:01:46;;;;;;;;;7.67;7.67;;;;;12.13;99.56;100393.84;5058472;28;46141;-74
2023/10/18 00:04:13;;;;;;;;;11.67;10.00;;;;;12.13;100.00;100410.59;5066275;28;45312;-74
2023/10/18 00:06:39;;;;;;;;;9.00;9.00;;;;;12.16;100.00;100425.47;5055683;28;46138;-74
2023/10/18 00:11:48;;;;;;;;;12.67;10.67;;;;;12.03;100.00;100396.19;5073069;28;45766;-73
2023/10/18 00:14:13;;;;;;;;;13.67;10.67;;;;;12.11;100.00;100415.13;5077356;27;45490;-75
2023/10/18 00:16:39;;;;;;;;;10.00;9.00;;;;;12.05;100.00;100389.00;5075562;28;45244;-74
2023/10/18 00:19:04;;;;;;;;;11.67;9.00;;;;;11.85;100.00;100363.66;5067070;28;45345;-73
2023/10/18 00:21:32;;;;;;;;;9.33;9.00;;;;;12.07;100.00;100397.72;5072385;28;46106;-74
2023/10/18 00:23:57;;;;;;;;;8.67;7.33;;;;;12.06;100.00;100395.16;5072772;28;45416;-74
2023/10/18 00:26:23;;;;;;;;;13.00;10.67;;;;;11.95;100.00;100367.47;5048561;28;45370;-75
2023/10/18 00:28:48;;;;;;;;;9.67;8.00;;;;;11.95;100.00;100371.94;5051224;28;50881;-74
2023/10/18 00:31:20;;;;;;;;;10.33;8.00;;;;;11.91;100.00;100365.94;5074439;28;46204;-74
2023/10/18 00:33:49;;;;;;;;;8.33;8.00;;;;;11.99;100.00;100390.22;5063276;28;45497;-75
2023/10/18 00:36:18;;;;;;;;;10.67;9.33;;;;;11.86;100.00;100361.88;5073146;28;45471;-75
2023/10/18 00:38:44;;;;;;;;;10.00;8.00;;;;;11.92;100.00;100380.91;5064338;28;45408;-74
2023/10/18 00:41:18;;;;;;;;;10.67;8.00;;;;;11.88;100.00;100366.13;5070941;28;45346;-74
2023/10/18 00:43:46;;;;;;;;;9.67;9.00;;;;;11.89;100.00;100359.03;5066187;28;45382;-74
2023/10/18 00:46:15;;;;;;;;;11.00;9.00;;;;;11.88;100.00;100371.44;5061470;28;45529;-75
2023/10/18 00:48:40;;;;;;;;;8.00;7.00;;;;;11.79;100.00;100356.09;5047796;28;45542;-74
2023/10/18 00:51:09;;;;;;;;;7.00;7.00;;;;;11.78;100.00;100343.78;5051173;28;46670;-75
2023/10/18 00:53:37;;;;;;;;;9.00;8.00;;;;;11.84;100.00;100356.69;5059164;28;45317;-74
2023/10/18 00:56:04;;;;;;;;;6.33;6.33;;;;;11.66;100.00;100319.78;5053291;28;45392;-74
2023/10/18 00:58:32;;;;;;;;;9.67;9.67;;;;;11.68;100.00;100324.03;5065779;28;45490;-74
2023/10/18 01:01:09;;;;;;;;;10.00;9.00;;;;;11.79;100.00;100347.28;5052396;28;45376;-74
2023/10/18 01:03:38;;;;;;;;;8.33;7.67;;;;;11.66;100.00;100322.44;5063051;28;45354;-75
2023/10/18 01:06:08;;;;;;;;;12.67;8.67;;;;;11.80;100.00;100339.25;5043672;28;45378;-75
2023/10/18 01:08:37;;;;;;;;;7.00;7.00;;;;;11.75;100.00;100320.13;5043138;28;45576;-74
2023/10/18 01:11:07;;;;;;;;;10.00;8.00;;;;;11.77;100.00;100320.03;5060134;28;46569;-75
2023/10/18 01:13:40;;;;;;;;;11.00;10.00;;;;;11.69;100.00;100323.09;5070961;28;45368;-75
2023/10/18 01:16:13;;;;;;;;;9.00;8.67;;;;;11.77;100.00;100323.53;5066862;28;45502;-74
2023/10/18 01:18:42;;;;;;;;;8.33;6.33;;;;;11.75;100.00;100317.47;5071336;28;45474;-74
2023/10/18 01:21:16;;;;;;;;;9.67;7.33;;;;;11.61;100.00;100290.94;5046192;28;46392;-74
2023/10/18 01:23:49;;;;;;;;;10.00;9.00;;;;;11.64;100.00;100296.03;5051470;28;45501;-74
2023/10/18 01:26:15;;;;;;;;;7.00;6.67;;;;;11.46;100.00;100276.78;5076520;28;45361;-74
2023/10/18 01:28:41;;;;;;;;;7.00;6.00;;;;;11.68;100.00;100294.06;5057375;28;45707;-75
2023/10/18 01:31:09;;;;;;;;;10.00;9.67;;;;;11.65;100.00;100288.97;5063282;28;45975;-73
2023/10/18 01:33:38;;;;;;;;;8.00;8.00;;;;;11.68;100.00;100294.06;5061682;28;45309;-74
2023/10/18 01:36:04;;;;;;;;;9.00;9.00;;;;;11.44;100.00;100252.22;5072587;28;45371;-74
2023/10/18 01:38:30;;;;;;;;;8.00;8.00;;;;;11.61;100.00;100277.69;5072635;28;45347;-76
2023/10/18 01:41:08;;;;;;;;;9.67;9.00;;;;;11.60;100.00;100275.97;5065055;28;46912;-76
2023/10/18 01:43:36;;;;;;;;;8.00;8.00;;;;;11.61;100.00;100283.00;5059781;28;45522;-76
2023/10/18 01:46:01;;;;;;;;;12.00;10.00;;;;;11.39;100.00;100256.06;5067894;28;45288;-76
2023/10/18 01:48:30;;;;;;;;;7.33;7.33;;;;;11.56;100.00;100278.88;5061521;28;45383;-76
2023/10/18 01:50:56;;;;;;;;;10.00;7.33;;;;;11.56;100.00;100274.44;5059028;28;47123;-76
2023/10/18 01:53:23;;;;;;;;;10.00;9.00;;;;;11.48;100.00;100259.00;5073865;28;45804;-76
2023/10/18 01:55:53;;;;;;;;;9.33;8.33;;;;;11.52;100.00;100263.19;5081890;28;45352;-76
2023/10/18 01:58:23;;;;;;;;;8.00;8.00;;;;;11.60;100.00;100267.19;5061221;28;45541;-76
2023/10/18 02:00:49;;;;;;;;;7.00;7.00;;;;;11.59;100.00;100263.66;5065814;28;45623;-76
2023/10/18 02:03:15;;;;;;;;;6.00;5.00;;;;;11.52;100.00;100241.13;5062505;28;45685;-76
2023/10/18 02:05:43;;;;;;;;;8.67;8.67;;;;;11.45;100.00;100235.34;5052865;28;45431;-76
2023/10/18 02:08:09;;;;;;;;;8.67;7.33;;;;;11.53;100.00;100248.16;5057892;28;45509;-76
2023/10/18 02:10:40;;;;;;;;;8.00;8.00;;;;;11.57;100.00;100239.09;5062735;28;46547;-75
2023/10/18 02:13:07;;;;;;;;;3.33;2.67;;;;;11.49;100.00;100228.09;5076163;28;45300;-76
2023/10/18 02:15:32;;;;;;;;;10.33;8.67;;;;;11.46;100.00;100221.19;5066371;28;45539;-75
2023/10/18 02:17:58;;;;;;;;;10.00;9.00;;;;;11.43;100.00;100209.91;5065636;28;45407;-76
2023/10/18 02:20:26;;;;;;;;;12.00;9.67;;;;;11.48;100.00;100221.94;5060524;28;46316;-76
2023/10/18 02:22:59;;;;;;;;;8.67;8.00;;;;;11.40;100.00;100195.06;5057098;28;45380;-76
2023/10/18 02:25:47;;;;;;;;;11.00;9.67;;;;;11.51;100.00;100205.03;5068272;28;45446;-76
2023/10/18 02:28:22;;;;;;;;;8.67;8.00;;;;;11.56;100.00;100202.09;5061699;28;45754;-76
2023/10/18 02:30:55;;;;;;;;;9.33;8.00;;;;;11.57;100.00;100207.31;5057330;28;48119;-76
2023/10/18 02:33:26;;;;;;;;;11.33;10.00;;;;;11.51;100.00;100189.16;5071962;28;45348;-76
2023/10/18 02:35:52;;;;;;;;;9.00;8.67;;;;;11.60;100.00;100195.66;5063779;28;45540;-76
2023/10/18 02:38:20;;;;;;;;;9.67;7.67;;;;;11.59;100.00;100189.50;5065862;28;45456;-75
2023/10/18 02:40:45;;;;;;;;;9.00;7.00;;;;;11.44;100.00;100179.88;5060264;28;45388;-76
2023/10/18 02:43:14;;;;;;;;;9.00;7.00;;;;;11.56;100.00;100176.47;5067115;27;45351;-76
2023/10/18 02:45:42;;;;;;;;;7.00;7.00;;;;;11.45;100.00;100161.22;5060021;28;45229;-76
2023/10/18 02:48:13;;;;;;;;;9.33;9.33;;;;;11.46;100.00;100154.13;5061846;28;45470;-75
2023/10/18 02:50:39;;;;;;;;;10.33;8.33;;;;;11.59;100.00;100178.06;5059504;28;46191;-76
2023/10/18 02:53:06;;;;;;;;;7.00;7.00;;;;;11.57;100.00;100178.16;5062839;28;45297;-75
2023/10/18 02:55:33;;;;;;;;;9.00;8.67;;;;;11.60;100.00;100185.06;5056943;28;45542;-75
2023/10/18 02:57:59;;;;;;;;;10.00;9.00;;;;;11.39;100.00;100155.44;5065852;28;45628;-76
2023/10/18 03:00:25;;;;;;;;;7.67;7.67;;;;;11.44;100.00;100161.31;5069762;28;45449;-76
2023/10/18 03:02:50;;;;;;;;;9.00;9.00;;;;;11.43;100.00;100149.03;5054343;28;45490;-76
2023/10/18 03:05:19;;;;;;;;;9.00;8.00;;;;;11.41;100.00;100138.53;5066483;28;45325;-76
2023/10/18 03:07:45;;;;;;;;;9.00;7.00;;;;;11.53;100.00;100158.09;5051608;28;45266;-76
2023/10/18 03:10:19;;;;;;;;;9.00;9.00;;;;;11.37;100.00;100131.72;5078291;28;48201;-76
2023/10/18 03:12:44;;;;;;;;;9.67;8.67;;;;;11.50;100.00;100150.34;5045433;28;45749;-76
2023/10/18 03:15:14;;;;;;;;;8.00;8.00;;;;;11.45;100.00;100128.63;5078668;28;45531;-76
2023/10/18 03:17:39;;;;;;;;;6.00;6.00;;;;;11.32;100.00;100114.44;5065639;28;45301;-76
2023/10/18 03:20:23;;;;;;;;;11.00;10.33;;;;;11.46;100.00;100125.00;5062848;28;46592;-76
2023/10/18 03:22:49;;;;;;;;;9.00;8.00;;;;;11.33;100.00;100094.94;5056584;28;45589;-76
2023/10/18 03:25:30;;;;;;;;;11.00;9.67;;;;;11.42;100.00;100119.03;5043515;28;45396;-76
2023/10/18 03:28:04;;;;;;;;;9.33;9.33;;;;;11.37;100.00;100121.13;5060189;28;45343;-76
2023/10/18 03:30:44;;;;;;;;;8.33;8.33;;;;;11.24;100.00;100101.66;5056620;28;45448;-76
2023/10/18 03:33:12;;;;;;;;;8.00;6.67;;;;;11.38;100.00;100146.69;5064135;28;45592;-76
2023/10/18 03:35:40;;;;;;;;;9.67;8.00;;;;;11.47;100.00;100143.47;5045243;28;45482;-76
2023/10/18 03:38:17;;;;;;;;;9.00;8.00;;;;;11.25;100.00;100107.81;5064829;28;45674;-76
2023/10/18 03:41:07;;;;;;;;;9.00;9.00;;;;;11.33;100.00;100110.81;5070930;28;46591;-75
2023/10/18 03:43:32;;;;;;;;;8.00;7.00;;;;;11.42;100.00;100128.78;5059200;28;45491;-76
2023/10/18 03:46:09;;;;;;;;;10.00;8.00;;;;;11.35;100.00;100114.25;5070822;28;45384;-76
2023/10/18 03:48:39;;;;;;;;;9.67;9.67;;;;;11.46;100.00;100128.50;5065114;28;45288;-76
2023/10/18 03:51:06;;;;;;;;;10.00;10.00;;;;;11.56;100.00;100136.72;5043861;28;46230;-76
2023/10/18 03:53:31;;;;;;;;;11.00;8.33;;;;;11.49;100.00;100125.66;5071540;28;45382;-76
2023/10/18 03:55:57;;;;;;;;;4.00;4.00;;;;;11.50;100.00;100123.88;5060608;28;45460;-75
2023/10/18 03:58:24;;;;;;;;;7.00;7.00;;;;;11.41;100.00;100096.19;5059405;28;45471;-76
2023/10/18 04:00:56;;;;;;;;;9.00;7.33;;;;;11.39;100.00;100076.00;5067993;28;46391;-76
2023/10/18 04:03:27;;;;;;;;;8.67;8.00;;;;;11.55;100.00;100089.19;5059737;28;45370;-76
2023/10/18 04:05:53;;;;;;;;;8.33;7.33;;;;;11.61;100.00;100099.38;5053416;28;45359;-76
2023/10/18 04:08:18;;;;;;;;;10.67;9.00;;;;;11.71;100.00;100095.25;5045631;28;45532;-75
2023/10/18 04:10:46;;;;;;;;;11.00;9.67;;;;;11.65;100.00;100087.66;5077384;28;45915;-76
2023/10/18 04:13:12;;;;;;;;;11.00;10.00;;;;;11.72;100.00;100095.13;5046685;28;45866;-75
2023/10/18 04:15:39;;;;;;;;;10.00;8.00;;;;;11.76;100.00;100104.59;5056882;28;45513;-76
2023/10/18 04:20:34;;;;;;;;;10.33;9.33;;;;;11.62;100.00;100064.84;5057887;28;45918;-76
2023/10/18 04:23:02;;;;;;;;;9.67;9.67;;;;;11.72;100.00;100084.53;5061190;28;45498;-76
2023/10/18 04:25:30;;;;;;;;;11.33;9.00;;;;;11.72;100.00;100084.53;5048521;28;45392;-76
2023/10/18 04:27:59;;;;;;;;;9.33;9.33;;;;;11.77;100.00;100081.59;5052420;28;45539;-76
2023/10/18 04:30:31;;;;;;;;;7.67;7.67;;;;;11.72;100.00;100081.88;5055822;28;48028;-77
2023/10/18 04:33:00;;;;;;;;;9.00;8.00;;;;;11.81;100.00;100083.94;5076835;28;45300;-76
2023/10/18 04:35:26;;;;;;;;;10.33;10.00;;;;;11.80;100.00;100074.31;5078370;28;45328;-76
2023/10/18 04:37:53;;;;;;;;;9.00;9.00;;;;;11.68;100.00;100037.13;5069475;28;45473;-76
2023/10/18 04:40:22;;;;;;;;;10.00;10.00;;;;;11.83;100.00;100063.53;5066733;28;46680;-76
2023/10/18 04:42:51;;;;;;;;;9.00;9.00;;;;;11.80;100.00;100047.81;5060501;28;45289;-76
2023/10/18 04:45:16;;;;;;;;;12.00;11.67;;;;;11.48;100.00;100004.78;5070439;28;45411;-76
2023/10/18 04:47:42;;;;;;;;;9.33;9.33;;;;;11.52;100.00;99984.28;5065558;28;45313;-76
2023/10/18 04:50:11;;;;;;;;;10.00;9.00;;;;;11.52;100.00;99984.28;5072403;28;45504;-75
2023/10/18 04:52:43;;;;;;;;;13.00;12.00;;;;;11.34;100.00;99953.69;5070981;28;45387;-73
2023/10/18 04:55:14;;;;;;;;;12.67;12.00;;;;;11.80;100.00;100008.09;5069747;28;45349;-76
2023/10/18 04:57:43;;;;;;;;;13.33;12.00;;;;;11.56;100.00;99987.56;5074941;28;45317;-76
2023/10/18 05:03:13;;;;;;;;;10.67;10.33;;;;;11.28;100.00;99914.38;5048780;28;45756;-76
2023/10/18 05:05:52;;;;;;;;;10.00;8.00;;;;;11.58;100.00;99989.19;5062429;28;45603;-77
2023/10/18 05:08:30;;;;;;;;;12.00;11.00;;;;;11.62;100.00;99968.63;5061773;28;45475;-76
2023/10/18 05:11:22;;;;;;;;;15.00;13.33;;;;;11.82;100.00;100000.03;5043069;28;47497;-75
2023/10/18 05:13:42;;;;;;;;;14.00;10.67;;;;;11.90;100.00;100006.53;5063618;28;45285;-77
2023/10/18 05:16:10;;;;;;;;;11.00;9.00;;;;;11.77;100.00;99979.16;5076937;27;45357;-77
2023/10/18 05:18:37;;;;;;;;;10.00;9.00;;;;;11.75;100.00;99973.06;5073524;28;46599;-76
2023/10/18 05:21:08;;;;;;;;;13.00;12.33;;;;;11.84;100.00;99996.34;5073803;28;45531;-76
2023/10/18 05:23:34;;;;;;;;;10.67;9.67;;;;;11.82;100.00;99984.97;5047075;28;45525;-76
2023/10/18 05:28:52;;;;;;;;;15.33;7.67;;;;;11.89;100.00;99996.03;5063771;28;46075;-76
2023/10/18 05:34:22;;;;;;;;;10.00;10.00;;;;;11.84;100.00;99980.44;5039639;28;45686;-75
2023/10/18 05:41:59;;;;;;;;;11.33;11.33;;;;;11.99;100.00;100002.44;5070782;28;45898;-76
2023/10/18 05:44:25;;;;;;;;;10.67;10.67;;;;;12.00;100.00;99997.03;5064726;28;45452;-76
2023/10/18 05:46:50;;;;;;;;;10.67;10.67;;;;;12.02;100.00;99997.78;5061014;28;45435;-77
2023/10/18 05:49:23;;;;;;;;;15.00;13.67;;;;;11.97;100.00;99981.34;5064254;28;45310;-74
2023/10/18 05:51:51;;;;;;;;;11.33;10.00;;;;;12.04;100.00;99994.19;5048553;28;46330;-77
2023/10/18 05:54:19;;;;;;;;;9.67;9.67;;;;;12.07;100.00;99993.97;5059967;27;45410;-73
2023/10/18 05:56:49;;;;;;;;;11.33;10.00;;;;;12.02;100.00;99991.63;5043796;28;45386;-73
2023/10/18 06:01:47;;;;;;;;;13.33;10.00;;;;;12.13;100.00;99985.63;5076872;28;45387;-74
2023/10/18 06:04:14;;;;;;;;;11.00;9.33;;;;;12.08;100.00;99972.66;5072640;28;45364;-76
2023/10/18 06:06:40;;;;;;;;;11.33;10.00;;;;;12.12;100.00;99984.75;5081841;27;45347;-74
2023/10/18 06:09:14;;;;;;;;;11.67;11.67;;;;;12.15;100.00;99981.91;5051428;28;45570;-77
2023/10/18 06:11:39;;;;;;;;;14.00;11.00;;;;;12.09;100.00;99963.78;5068599;28;47918;-76
2023/10/18 06:14:05;;;;;;;;;13.67;11.67;;;;;12.14;100.00;99974.06;5065427;28;45474;-77
2023/10/18 06:16:34;;;;;;;;;10.00;10.00;;;;;12.19;100.00;99986.06;5075121;28;45420;-76
2023/10/18 06:19:03;;;;;;;;;12.00;11.00;;;;;12.16;100.00;99982.75;5063537;28;45554;-77
2023/10/18 06:21:29;;;;;;;;;13.67;12.33;;;;;12.16;100.00;99978.31;5068330;28;45547;-74
2023/10/18 06:23:57;;;;;;;;;16.33;12.00;;;;;12.25;100.00;99998.91;5051085;28;46489;-76
2023/10/18 06:26:30;;;;;;;;;12.00;11.33;;;;;12.05;100.00;99959.63;5073619;28;45429;-76
2023/10/18 06:29:00;;;;;;;;;11.33;10.67;;;;;12.22;100.00;99982.34;5049953;28;45599;-73
2023/10/18 06:31:29;;;;;;;;;9.33;9.00;;;;;12.36;100.00;99990.22;5056107;28;46716;-76
2023/10/18 06:34:03;;;;;;;;;13.00;11.00;;;;;12.37;100.00;99970.69;5041743;28;45459;-76
2023/10/18 06:36:32;;;;;;;;;11.00;11.00;;;;;12.38;100.00;99962.66;5070370;28;45304;-76
2023/10/18 06:38:58;;;;;;;;;11.00;11.00;;;;;12.29;100.00;99942.06;5061112;28;45481;-76
2023/10/18 06:41:29;;;;;;;;;15.00;12.67;;;;;12.31;100.00;99924.25;5067768;28;45353;-76
2023/10/18 06:43:58;;;;;;;;;6.00;5.00;;;;;12.44;100.00;99954.28;5060180;28;45282;-75
2023/10/18 06:46:27;;;;;;;;;12.00;11.00;;;;;12.35;100.00;99938.16;5066806;28;45485;-76
2023/10/18 06:48:55;;;;;;;;;9.00;9.00;;;;;12.40;100.00;99936.88;5080398;28;45485;-76
2023/10/18 06:51:30;;;;;;;;;15.00;12.00;;;;;12.38;100.00;99922.88;5059074;28;46334;-76
2023/10/18 06:54:05;;;;;;;;;9.00;9.00;;;;;12.46;100.00;99932.97;5068191;28;45258;-76
2023/10/18 06:56:39;;;;;;;;;14.33;10.00;;;;;12.52;100.00;99935.19;5042372;28;45399;-76
2023/10/18 06:59:07;;;;;;;;;13.33;12.33;;;;;12.59;100.00;99941.78;5062345;28;45286;-76
2023/10/18 07:01:33;;;;;;;;;14.00;10.67;;;;;12.49;100.00;99924.81;5071967;28;45467;-76
2023/10/18 07:04:00;;;;;;;;;9.00;8.67;;;;;12.59;100.00;99931.16;5048086;28;45352;-75
2023/10/18 07:06:29;;;;;;;;;14.00;12.67;;;;;12.56;100.00;99914.63;5059268;28;45756;-75
2023/10/18 07:08:55;;;;;;;;;12.67;10.00;;;;;12.48;100.00;99876.22;5072342;28;45307;-76
2023/10/18 07:11:26;;;;;;;;;14.00;11.67;;;;;12.66;100.00;99905.91;5060831;28;46088;-76
2023/10/18 07:13:53;;;;;;;;;11.00;9.67;;;;;12.52;100.00;99856.47;5062641;28;45372;-76
2023/10/18 07:16:38;;;;;;;;;12.00;9.50;;;;;12.57;100.00;99849.97;5065396;28;45323;-75
2023/10/18 07:21:32;;;;;;;;;12.00;12.00;;;;;12.67;100.00;99866.94;5071212;28;45398;-76
2023/10/18 07:24:09;;;;;;;;;16.33;13.33;;;;;12.84;100.00;99893.16;5078786;27;45246;-76
2023/10/18 07:26:35;;;;;;;;;10.00;10.00;;;;;12.83;100.00;99902.91;5064417;28;45297;-76
2023/10/18 07:29:00;;;;;;;;;14.67;12.00;;;;;12.80;100.00;99884.56;5054980;28;45538;-76
2023/10/18 07:31:32;;;;;;;;;15.33;14.00;;;;;12.98;100.00;99908.94;5063185;28;45327;-76
2023/10/18 07:34:02;;;;;;;;;13.67;12.67;;;;;12.94;100.00;99896.84;5068690;28;45326;-76
2023/10/18 07:36:28;;;;;;;;;12.33;11.67;;;;;13.02;100.00;99899.81;5069751;28;45408;-76
2023/10/18 07:38:56;;;;;;;;;17.67;15.00;;;;;13.01;100.00;99884.84;5071589;28;45491;-76
2023/10/18 07:41:27;;;;;;;;;9.67;8.67;;;;;13.18;100.00;99912.88;5079253;28;45354;-76
2023/10/18 07:43:55;;;;;;;;;14.67;11.33;;;;;13.29;100.00;99912.91;5076041;28;45387;-76
2023/10/18 07:46:24;;;;;;;;;10.00;10.00;;;;;13.36;100.00;99911.53;5079956;28;45311;-76
2023/10/18 07:48:53;;;;;;;;;13.33;11.67;;;;;13.31;100.00;99884.47;5065768;28;45461;-77
2023/10/18 07:51:24;;;;;;;;;11.67;11.00;;;;;13.44;100.00;99899.41;5044862;28;48366;-76
2023/10/18 07:53:51;;;;;;;;;14.67;12.33;;;;;13.59;100.00;99908.03;5059188;28;46522;-76
2023/10/18 07:56:16;;;;;;;;;10.67;10.67;;;;;13.64;100.00;99897.06;5068412;28;45541;-76
2023/10/18 07:58:49;;;;;;;;;12.00;11.00;;;;;13.53;100.00;99856.22;5069919;28;45557;-76
2023/10/18 08:01:32;;;;;;;;;11.67;11.67;;;;;13.82;100.00;99869.09;5049260;28;47507;-76
2023/10/18 08:03:58;;;;;;;;;12.00;12.00;;;;;13.85;100.00;99853.78;5068867;28;45593;-76
2023/10/18 08:06:26;;;;;;;;;13.67;12.67;;;;;13.83;100.00;99836.25;5062604;28;45360;-76
2023/10/18 08:08:52;;;;;;;;;15.33;13.00;;;;;13.92;100.00;99828.44;5070012;28;45482;-77
2023/10/18 08:11:17;;;;;;;;;15.33;11.33;;;;;14.01;100.00;99817.09;5047103;28;46275;-76
2023/10/18 08:13:45;;;;;;;;;14.00;12.00;;;;;14.10;100.00;99804.91;5062177;28;45407;-76
2023/10/18 08:16:19;;;;;;;;;18.00;16.67;;;;;14.22;100.00;99816.41;5063501;28;45400;-76
2023/10/18 08:18:53;;;;;;;;;13.33;12.33;;;;;14.37;100.00;99828.53;5052860;28;45471;-76
2023/10/18 08:21:37;;;;;;;;;11.33;11.33;;;;;14.32;100.00;99801.41;5070492;28;46189;-76
2023/10/18 08:24:20;;;;;;;;;11.33;11.00;;;;;14.55;100.00;99824.44;5061367;28;45378;-76
2023/10/18 08:26:51;;;;;;;;;12.33;11.67;;;;;14.66;100.00;99824.41;5063640;28;45400;-75
2023/10/18 08:29:17;;;;;;;;;10.33;10.33;;;;;14.65;100.00;99809.44;5060657;28;45346;-76
2023/10/18 08:31:53;;;;;;;;;11.67;11.67;;;;;14.84;100.00;99833.59;5048131;28;45552;-76
2023/10/18 08:34:19;;;;;;;;;11.33;10.67;;;;;14.93;100.00;99821.38;5056709;28;45389;-76
2023/10/18 08:36:44;;;;;;;;;11.67;11.67;;;;;14.97;100.00;99821.00;5059591;28;48246;-76
2023/10/18 08:39:10;;;;;;;;;14.67;11.67;;;;;14.97;100.00;99802.38;5061985;28;45604;-76
2023/10/18 08:41:49;;;;;;;;;11.00;9.00;;;;;15.06;99.33;99808.75;5055605;28;47783;-75
2023/10/18 08:44:22;;;;;;;;;13.00;11.33;;;;;15.09;97.11;99816.50;5078095;28;45293;-75
2023/10/18 08:47:11;;;;;;;;;14.67;11.33;;;;;15.23;96.29;99804.72;5048155;27;45404;-76
2023/10/18 08:49:50;;;;;;;;;14.67;10.67;;;;;15.25;98.28;99794.78;5062102;28;45326;-76
2023/10/18 08:52:20;;;;;;;;;12.33;9.67;;;;;15.19;99.20;99764.16;5058319;28;45453;-75
2023/10/18 08:54:46;;;;;;;;;11.33;11.00;;;;;15.48;97.67;99786.59;5048806;28;45574;-76
2023/10/18 08:57:14;;;;;;;;;13.33;10.33;;;;;15.57;98.36;99782.34;5053610;28;45376;-76
2023/10/18 08:59:45;;;;;;;;;13.00;12.33;;;;;15.75;98.03;99801.25;5079028;27;45394;-76
2023/10/18 09:02:13;;;;;;;;;9.67;9.67;;;;;15.87;98.17;99798.38;5062462;28;46162;-76
2023/10/18 09:04:44;;;;;;;;;10.00;10.00;;;;;15.82;96.48;99778.44;5066524;28;45332;-76
2023/10/18 09:07:22;;;;;;;;;11.00;9.33;;;;;15.94;94.66;99770.22;5065432;28;45464;-76
2023/10/18 09:09:58;;;;;;;;;8.00;8.00;;;;;16.00;95.81;99772.34;5059842;28;45567;-76
2023/10/18 09:17:54;;;;;;;;;7.00;7.00;;;;;16.39;94.59;99772.56;5077683;28;45460;-77
2023/10/18 09:20:25;;;;;;;;;7.33;7.33;;;;;16.44;95.07;99759.66;5054243;28;45842;-76
2023/10/18 09:22:50;;;;;;;;;8.67;8.33;;;;;16.43;93.87;99748.13;5059687;28;46123;-76
2023/10/18 09:25:16;;;;;;;;;9.33;8.00;;;;;16.57;95.14;99757.63;5043244;28;45424;-76
2023/10/18 09:27:41;;;;;;;;;8.00;8.00;;;;;16.51;94.04;99742.13;5046521;28;45324;-76
2023/10/18 09:30:13;;;;;;;;;6.00;6.00;;;;;16.78;95.55;99763.75;5061632;28;45377;-77
2023/10/18 09:32:38;;;;;;;;;11.00;11.00;;;;;16.87;93.42;99770.94;5069085;28;45563;-76
2023/10/18 09:35:07;;;;;;;;;10.67;8.00;;;;;16.90;94.40;99767.97;5068749;28;46681;-76
2023/10/18 09:37:35;;;;;;;;;7.67;6.67;;;;;16.81;93.56;99731.44;5075138;28;45503;-76
2023/10/18 09:40:03;;;;;;;;;10.33;7.67;;;;;17.07;93.63;99761.97;5062537;28;45408;-76
2023/10/18 09:42:29;;;;;;;;;9.33;9.00;;;;;17.18;92.46;99760.97;5061706;28;45678;-76
2023/10/18 09:44:54;;;;;;;;;8.33;8.33;;;;;17.23;92.67;99757.91;5062452;28;45554;-76
2023/10/18 09:47:24;;;;;;;;;12.00;9.33;;;;;17.30;91.94;99759.88;5058760;28;45400;-76
2023/10/18 09:49:50;;;;;;;;;9.00;7.00;;;;;17.38;92.12;99743.97;5064397;28;45564;-77
2023/10/18 09:52:16;;;;;;;;;10.00;9.00;;;;;17.39;91.91;99734.13;5059021;28;45459;-77
2023/10/18 09:54:49;;;;;;;;;9.00;7.67;;;;;17.43;88.83;99743.56;5057718;28;45964;-76
2023/10/18 09:57:24;;;;;;;;;8.00;8.00;;;;;17.40;92.22;99730.47;5059964;28;45503;-76
2023/10/18 09:59:54;;;;;;;;;10.00;10.00;;;;;17.33;91.37;99715.97;5073568;28;45435;-76
2023/10/18 10:02:20;;;;;;;;;10.67;8.00;;;;;17.16;91.85;99690.81;5069535;28;46388;-75
2023/10/18 10:04:52;;;;;;;;;7.67;7.67;;;;;17.30;91.87;99716.25;5054922;28;45334;-76
2023/10/18 10:07:27;;;;;;;;;11.00;10.33;;;;;17.23;93.47;99704.44;5077585;28;45458;-76
2023/10/18 10:10:07;;;;;;;;;12.67;11.00;;;;;17.22;91.90;99700.06;5063815;28;45546;-76
2023/10/18 10:12:33;;;;;;;;;8.00;8.00;;;;;17.15;92.12;99689.97;5073314;28;45575;-76
2023/10/18 10:14:59;;;;;;;;;7.00;7.00;;;;;17.12;94.16;99700.09;5082373;28;45369;-74
2023/10/18 10:17:28;;;;;;;;;7.67;7.67;;;;;17.05;93.89;99691.78;5074746;28;45422;-75
2023/10/18 10:20:01;;;;;;;;;10.00;9.67;;;;;17.07;94.08;99705.03;5064004;28;45408;-75
2023/10/18 10:22:27;;;;;;;;;7.00;6.67;;;;;17.07;94.49;99703.19;5060688;28;46259;-75
2023/10/18 10:25:11;;;;;;;;;10.00;7.67;;;;;17.04;95.66;99689.28;5060173;28;45409;-74
2023/10/18 10:30:19;;;;;;;;;12.00;10.67;;;;;17.25;94.81;99687.28;5069204;28;45410;-75
2023/10/18 10:32:49;;;;;;;;;9.67;9.00;;;;;17.13;94.10;99654.53;5057448;28;45438;-75
2023/10/18 10:35:17;;;;;;;;;8.33;7.33;;;;;17.28;93.37;99668.28;5047320;28;45616;-74
2023/10/18 10:37:48;;;;;;;;;7.00;7.00;;;;;17.33;94.12;99642.00;5034258;28;45267;-74
2023/10/18 10:40:19;;;;;;;;;10.33;8.00;;;;;17.62;93.12;99661.53;5059806;28;45505;-75
2023/10/18 10:42:48;;;;;;;;;9.67;8.00;;;;;17.69;92.55;99665.31;5059121;28;45528;-75
2023/10/18 10:45:41;;;;;;;;;7.33;7.33;;;;;17.76;92.09;99670.91;5070452;28;45931;-75
2023/10/18 10:48:16;;;;;;;;;13.33;9.67;;;;;17.77;92.38;99661.06;5070860;28;45659;-75
2023/10/18 10:50:45;;;;;;;;;8.00;8.00;;;;;17.79;92.78;99651.91;5062099;28;45483;-75
2023/10/18 10:53:10;;;;;;;;;9.00;8.67;;;;;17.45;93.27;99581.19;5050070;28;46960;-74
2023/10/18 10:55:35;;;;;;;;;9.00;9.00;;;;;17.86;93.56;99639.63;5063027;28;45444;-75
2023/10/18 10:58:15;;;;;;;;;9.00;9.00;;;;;17.72;93.61;99632.06;5079413;28;45441;-75
2023/10/18 11:01:03;;;;;;;;;9.67;9.00;;;;;17.76;92.93;99625.44;5064270;28;45356;-75
2023/10/18 11:03:30;;;;;;;;;11.00;7.33;;;;;17.76;95.68;99636.16;5074317;28;46104;-75
2023/10/18 11:05:58;;;;;;;;;10.00;8.67;;;;;17.63;95.28;99617.75;5066391;28;45482;-75
2023/10/18 11:08:25;;;;;;;;;8.00;8.00;;;;;17.66;95.67;99627.31;5059317;28;45360;-74
2023/10/18 11:10:50;;;;;;;;;11.67;8.67;;;;;17.55;96.39;99614.94;5051495;28;45492;-74
2023/10/18 11:13:22;;;;;;;;;11.33;8.00;;;;;17.64;97.03;99623.91;5072531;28;45643;-74
2023/10/18 11:15:49;;;;;;;;;9.00;9.00;;;;;17.51;97.12;99586.78;5057957;28;45514;-74
2023/10/18 11:18:20;;;;;;;;;7.67;7.67;;;;;17.55;99.25;99593.56;5065295;28;45791;-74
2023/10/18 11:24:01;;;;;;;;;10.67;8.00;;;;;17.61;100.00;99614.38;5036864;28;46009;-74
2023/10/18 11:26:27;;;;;;;;;11.00;9.00;;;;;17.60;100.00;99595.81;5072953;28;45380;-74
2023/10/18 11:28:56;;;;;;;;;9.67;8.67;;;;;17.41;100.00;99564.59;5077545;28;45479;-74
2023/10/18 11:31:26;;;;;;;;;9.67;9.00;;;;;17.50;100.00;99578.94;5070904;28;45580;-74
2023/10/18 11:33:57;;;;;;;;;8.67;7.67;;;;;17.51;100.00;99580.59;5069225;28;46380;-75
2023/10/18 11:36:27;;;;;;;;;9.67;9.67;;;;;17.46;100.00;99575.69;5073508;28;45339;-75
2023/10/18 11:41:37;;;;;;;;;11.33;10.00;;;;;17.42;100.00;99554.75;5075101;28;45363;-75
2023/10/18 11:44:07;;;;;;;;;10.00;9.00;;;;;17.45;100.00;99549.94;5077820;28;45455;-75
2023/10/18 11:46:46;;;;;;;;;11.00;8.00;;;;;17.41;100.00;99542.34;5077547;28;45330;-75
2023/10/18 11:49:21;;;;;;;;;11.00;9.00;;;;;17.25;100.00;99510.06;5070228;28;45384;-75
2023/10/18 11:51:50;;;;;;;;;10.00;10.00;;;;;17.39;100.00;99534.50;5054643;28;45368;-75
2023/10/18 11:54:32;;;;;;;;;14.67;12.67;;;;;17.38;100.00;99531.97;5065548;28;45599;-75
2023/10/18 11:56:59;;;;;;;;;7.67;7.67;;;;;17.42;100.00;99528.00;5068653;28;45353;-75
2023/10/18 11:59:25;;;;;;;;;7.67;7.00;;;;;17.30;100.00;99513.16;5064690;28;45515;-75
2023/10/18 12:01:58;;;;;;;;;12.33;9.00;;;;;17.21;100.00;99490.00;5054662;28;45552;-74
2023/10/18 12:04:28;;;;;;;;;11.67;9.33;;;;;17.21;100.00;99496.19;5054594;28;45784;-74
2023/10/18 12:06:56;;;;;;;;;11.00;9.33;;;;;17.18;100.00;99496.44;5065485;28;45436;-74